createdAt,value
2019-04-04T00:01:22.530Z,102.90
2019-04-04T00:03:51.862Z,101.83
2019-04-04T00:06:20.561Z,97.20
2019-04-04T00:08:49.053Z,89.23
2019-04-04T00:11:17.249Z,98.97
2019-04-04T00:13:45.450Z,99.53
2019-04-04T00:16:16.063Z,100.17
2019-04-04T00:18:43.991Z,94.70
2019-04-04T00:21:13.227Z,98.67
2019-04-04T00:23:41.454Z,92.23
2019-04-04T00:26:10.785Z,98.50
2019-04-04T00:28:39.531Z,99.60
2019-04-04T00:31:07.941Z,96.30
2019-04-04T00:33:36.404Z,96.23
2019-04-04T00:36:04.912Z,99.67
2019-04-04T00:38:33.114Z,101.90
2019-04-04T00:41:01.349Z,102.33
2019-04-04T00:43:29.821Z,98.20
2019-04-04T00:46:00.539Z,102.67
2019-04-04T00:48:28.336Z,98.33
2019-04-04T00:50:56.797Z,93.27
2019-04-04T00:53:25.306Z,89.23
2019-04-04T00:55:53.761Z,98.03
2019-04-04T00:58:22.279Z,95.43
2019-04-04T01:00:50.579Z,91.97
2019-04-04T01:03:18.801Z,87.23
2019-04-04T01:05:47.177Z,86.90
2019-04-04T01:08:15.667Z,90.90
2019-04-04T01:10:44.138Z,101.20
2019-04-04T01:13:12.365Z,95.67
2019-04-04T01:15:40.668Z,95.40
2019-04-04T01:18:08.869Z,80.87
2019-04-04T01:20:37.237Z,94.90
2019-04-04T01:23:05.550Z,82.77
2019-04-04T01:25:34.012Z,101.40
2019-04-04T01:28:02.492Z,94.93
2019-04-04T01:30:30.986Z,98.10
2019-04-04T01:32:59.466Z,89.73
2019-04-04T01:35:27.956Z,103.20
2019-04-04T01:37:58.119Z,93.30
2019-04-04T01:40:26.436Z,101.90
2019-04-04T01:42:54.922Z,98.33
2019-04-04T01:45:23.394Z,99.77
2019-04-04T01:47:51.611Z,103.70
2019-04-04T01:50:22.494Z,93.77
2019-04-04T01:52:49.879Z,96.37
2019-04-04T01:55:18.336Z,97.57
2019-04-04T01:57:46.823Z,97.13
2019-04-04T02:00:15.835Z,90.03
2019-04-04T02:02:44.292Z,93.53
2019-04-04T02:05:13.111Z,93.10
2019-04-04T02:07:41.256Z,97.83
2019-04-04T02:10:10.235Z,99.47
2019-04-04T02:12:39.334Z,96.90
2019-04-04T02:15:13.787Z,98.17
2019-04-04T02:17:40.540Z,90.77
2019-04-04T02:20:08.865Z,88.53
2019-04-04T02:22:37.066Z,93.17
2019-04-04T02:25:08.027Z,86.57
2019-04-04T02:27:37.914Z,86.80
2019-04-04T02:30:07.166Z,92.00
2019-04-04T02:32:35.370Z,89.03
2019-04-04T02:35:05.057Z,93.60
2019-04-04T02:37:33.280Z,90.80
2019-04-04T02:40:01.762Z,96.93
2019-04-04T02:42:29.963Z,98.33
2019-04-04T02:44:58.208Z,92.13
2019-04-04T02:47:26.796Z,101.87
2019-04-04T02:49:55.160Z,97.50
2019-04-04T02:52:23.649Z,100.70
2019-04-04T02:54:57.087Z,101.27
2019-04-04T02:57:22.668Z,95.60
2019-04-04T02:59:53.404Z,97.53
2019-04-04T03:02:23.174Z,95.87
2019-04-04T03:04:51.190Z,94.17
2019-04-04T03:07:19.662Z,101.17
2019-04-04T03:09:48.164Z,97.47
2019-04-04T03:12:16.620Z,97.90
2019-04-04T03:14:45.105Z,104.90
2019-04-04T03:17:13.602Z,92.53
2019-04-04T03:19:43.626Z,110.10
2019-04-04T03:22:11.705Z,99.37
2019-04-04T03:24:42.904Z,94.17
2019-04-04T03:27:10.084Z,101.63
2019-04-04T03:29:38.549Z,94.90
2019-04-04T03:32:13.786Z,101.20
2019-04-04T03:34:38.625Z,102.83
2019-04-04T03:37:10.170Z,99.17
2019-04-04T03:39:37.085Z,102.90
2019-04-04T03:42:08.223Z,96.33
2019-04-04T03:44:35.582Z,97.07
2019-04-04T03:47:03.772Z,98.40
2019-04-04T03:49:32.065Z,99.73
2019-04-04T03:52:00.272Z,94.00
2019-04-04T03:54:28.634Z,88.83
2019-04-04T03:56:56.828Z,89.13
2019-04-04T03:59:25.048Z,100.17
2019-04-04T04:01:53.419Z,102.03
2019-04-04T04:04:21.775Z,95.90
2019-04-04T04:06:50.388Z,93.63
2019-04-04T04:09:18.582Z,103.87
2019-04-04T04:11:46.806Z,101.10
2019-04-04T04:14:15.012Z,80.43
2019-04-04T04:16:43.227Z,81.00
2019-04-04T04:19:11.453Z,97.40
2019-04-04T04:21:42.760Z,97.63
2019-04-04T04:24:09.649Z,94.60
2019-04-04T04:26:40.989Z,92.93
2019-04-04T04:29:08.255Z,101.17
2019-04-04T04:31:36.487Z,92.70
2019-04-04T04:34:04.718Z,91.47
2019-04-04T04:36:33.199Z,94.33
2019-04-04T04:39:01.669Z,97.47
2019-04-04T04:41:30.170Z,94.37
2019-04-04T04:43:58.627Z,98.13
2019-04-04T04:46:27.120Z,91.90
2019-04-04T04:48:55.616Z,92.67
2019-04-04T04:51:24.090Z,104.90
2019-04-04T04:53:52.560Z,101.30
2019-04-04T04:56:20.780Z,93.63
2019-04-04T04:58:49.005Z,96.47
2019-04-04T05:01:18.383Z,97.67
2019-04-04T05:03:47.293Z,89.70
2019-04-04T05:06:15.496Z,92.20
2019-04-04T05:08:43.707Z,97.00
2019-04-04T05:11:14.457Z,91.53
2019-04-04T05:13:41.840Z,85.43
2019-04-04T05:16:10.061Z,88.27
2019-04-04T05:18:38.253Z,87.47
2019-04-04T05:21:06.482Z,95.13
2019-04-04T05:23:34.663Z,80.90
2019-04-04T05:26:03.295Z,91.53
2019-04-04T05:28:31.550Z,98.23
2019-04-04T05:30:59.766Z,97.60
2019-04-04T05:33:29.136Z,105.43
2019-04-04T05:35:57.901Z,98.97
2019-04-04T05:38:26.093Z,102.40
2019-04-04T05:40:55.346Z,92.63
2019-04-04T05:43:24.287Z,110.03
2019-04-04T05:45:52.487Z,98.07
2019-04-04T05:48:20.699Z,96.97
2019-04-04T05:50:48.911Z,96.70
2019-04-04T05:53:17.116Z,105.63
2019-04-04T05:55:45.315Z,99.47
2019-04-04T05:58:13.538Z,92.60
2019-04-04T06:00:44.096Z,101.90
2019-04-04T06:03:13.025Z,97.20
2019-04-04T06:05:42.239Z,98.13
2019-04-04T06:08:10.454Z,91.17
2019-04-04T06:10:38.711Z,102.63
2019-04-04T06:13:06.849Z,93.43
2019-04-04T06:15:35.065Z,91.80
2019-04-04T06:18:03.334Z,90.20
2019-04-04T06:20:31.546Z,100.30
2019-04-04T06:22:59.754Z,100.70
2019-04-04T06:25:27.980Z,97.43
2019-04-04T06:27:56.549Z,96.67
2019-04-04T06:30:24.765Z,98.47
2019-04-04T06:32:52.977Z,96.00
2019-04-04T06:35:21.184Z,93.30
2019-04-04T06:37:51.305Z,95.27
2019-04-04T06:40:19.575Z,95.70
2019-04-04T06:42:47.789Z,91.60
2019-04-04T06:45:16.328Z,89.93
2019-04-04T06:47:44.550Z,84.37
2019-04-04T06:50:12.758Z,78.67
2019-04-04T06:52:40.952Z,80.43
2019-04-04T06:55:09.173Z,77.77
2019-04-04T06:57:37.613Z,83.07
2019-04-04T07:00:08.931Z,64.33
2019-04-04T07:02:37.129Z,67.03
2019-04-04T07:05:10.393Z,62.33
2019-04-04T07:07:37.864Z,63.07
2019-04-04T07:10:06.075Z,55.20
2019-04-04T07:12:37.850Z,53.23
2019-04-04T07:15:06.140Z,52.03
2019-04-04T07:17:34.346Z,55.80
2019-04-04T07:20:02.547Z,45.53
2019-04-04T07:22:30.736Z,48.27
2019-04-04T07:25:01.124Z,53.73
2019-04-04T07:27:28.872Z,54.73
2019-04-04T07:29:57.326Z,52.33
2019-04-04T07:32:25.478Z,44.60
2019-04-04T07:34:53.699Z,53.27
2019-04-04T07:37:22.664Z,55.93
2019-04-04T07:39:50.868Z,54.90
2019-04-04T07:42:19.154Z,53.67
2019-04-04T07:44:47.601Z,54.57
2019-04-04T07:47:16.767Z,53.90
2019-04-04T07:49:45.038Z,52.90
2019-04-04T07:52:13.256Z,48.00
2019-04-04T07:54:41.456Z,45.20
2019-04-04T07:57:09.678Z,41.17
2019-04-04T07:59:37.879Z,44.93
2019-04-04T08:02:06.092Z,44.30
2019-04-04T08:04:34.360Z,47.80
2019-04-04T08:07:02.573Z,38.07
2019-04-04T08:09:30.774Z,43.17
2019-04-04T08:11:59.312Z,44.20
2019-04-04T08:14:28.079Z,38.87
2019-04-04T08:16:56.529Z,42.73
2019-04-04T08:19:24.726Z,39.67
2019-04-04T08:21:52.920Z,42.30
2019-04-04T08:24:21.133Z,33.37
2019-04-04T08:26:49.332Z,40.17
2019-04-04T08:29:17.556Z,34.53
2019-04-04T08:31:45.758Z,32.93
2019-04-04T08:34:13.986Z,28.97
2019-04-04T08:36:42.199Z,41.57
2019-04-04T08:39:11.971Z,27.60
2019-04-04T08:41:40.187Z,27.23
2019-04-04T08:44:08.398Z,24.63
2019-04-04T08:46:36.611Z,28.30
2019-04-04T08:49:04.811Z,28.57
2019-04-04T08:51:33.028Z,25.83
2019-04-04T08:54:01.225Z,27.70
2019-04-04T08:56:29.445Z,29.03
2019-04-04T08:58:57.654Z,27.33
2019-04-04T09:01:25.849Z,33.10
2019-04-04T09:03:54.529Z,30.03
2019-04-04T09:06:22.746Z,33.30
2019-04-04T09:08:50.954Z,36.73
2019-04-04T09:11:19.150Z,35.03
2019-04-04T09:13:47.352Z,34.63
2019-04-04T09:16:15.551Z,34.63
2019-04-04T09:18:43.775Z,35.67
2019-04-04T09:21:11.978Z,32.77
2019-04-04T09:23:40.189Z,38.03
2019-04-04T09:26:08.400Z,33.67
2019-04-04T09:28:36.616Z,40.97
2019-04-04T09:31:05.389Z,37.50
2019-04-04T09:33:33.603Z,35.97
2019-04-04T09:36:01.805Z,38.37
2019-04-04T09:38:30.025Z,45.07
2019-04-04T09:40:58.225Z,35.03
2019-04-04T09:43:26.898Z,40.73
2019-04-04T09:45:55.356Z,40.03
2019-04-04T09:48:23.558Z,41.80
2019-04-04T09:50:51.769Z,39.73
2019-04-04T09:53:19.992Z,43.37
2019-04-04T09:55:48.197Z,43.13
2019-04-04T09:58:16.414Z,41.73
2019-04-04T10:00:45.494Z,46.30
2019-04-04T10:03:13.717Z,45.23
2019-04-04T10:05:41.919Z,44.03
2019-04-04T10:08:10.137Z,48.23
2019-04-04T10:10:38.348Z,45.37
2019-04-04T10:13:06.555Z,46.73
2019-04-04T10:15:34.792Z,48.27
2019-04-04T10:18:02.969Z,56.00
2019-04-04T10:20:31.198Z,55.63
2019-04-04T10:22:59.410Z,45.27
2019-04-04T10:25:27.606Z,42.90
2019-04-04T10:27:55.820Z,44.90
2019-04-04T10:30:24.024Z,40.97
2019-04-04T10:32:52.324Z,54.93
2019-04-04T10:35:20.525Z,50.10
2019-04-04T10:37:48.748Z,54.53
2019-04-04T10:40:16.950Z,53.77
2019-04-04T10:42:45.151Z,46.27
2019-04-04T10:45:13.507Z,52.97
2019-04-04T10:47:41.730Z,51.30
2019-04-04T10:50:09.952Z,54.57
2019-04-04T10:52:39.459Z,51.00
2019-04-04T10:55:07.682Z,53.63
2019-04-04T10:57:35.886Z,50.10
2019-04-04T11:00:08.409Z,55.70
2019-04-04T11:02:36.611Z,51.57
2019-04-04T11:05:05.452Z,56.57
2019-04-04T11:07:34.033Z,62.50
2019-04-04T11:10:02.242Z,52.27
2019-04-04T11:12:30.462Z,61.17
2019-04-04T11:14:58.658Z,59.37
2019-04-04T11:17:26.879Z,59.17
2019-04-04T11:19:55.080Z,57.77
2019-04-04T11:22:23.282Z,57.93
2019-04-04T11:24:51.498Z,62.10
2019-04-04T11:27:19.706Z,57.53
2019-04-04T11:29:47.927Z,62.13
2019-04-04T11:32:16.133Z,64.03
2019-04-04T11:34:52.968Z,61.67
2019-04-04T11:37:14.286Z,57.63
2019-04-04T11:39:53.930Z,60.67
2019-04-04T11:42:12.416Z,59.60
2019-04-04T11:44:40.616Z,60.53
2019-04-04T11:47:08.834Z,64.30
2019-04-04T11:49:37.036Z,67.30
2019-04-04T11:52:05.250Z,64.57
2019-04-04T11:54:35.100Z,67.70
2019-04-04T11:57:03.321Z,59.50
2019-04-04T11:59:31.516Z,61.70
2019-04-04T12:02:00.094Z,62.50
2019-04-04T12:04:28.310Z,66.03
2019-04-04T12:06:56.506Z,62.07
2019-04-04T12:09:24.719Z,62.00
2019-04-04T12:11:53.387Z,65.50
2019-04-04T12:14:21.588Z,68.27
2019-04-04T12:16:49.784Z,64.87
2019-04-04T12:19:17.993Z,71.23
2019-04-04T12:21:46.183Z,66.13
2019-04-04T12:24:14.389Z,68.90
2019-04-04T12:26:42.592Z,63.97
2019-04-04T12:29:10.809Z,72.30
2019-04-04T12:31:39.007Z,74.90
2019-04-04T12:34:07.221Z,74.60
2019-04-04T12:36:35.422Z,76.03
2019-04-04T12:39:03.762Z,76.50
2019-04-04T12:41:31.985Z,73.00
2019-04-04T12:44:00.195Z,68.97
2019-04-04T12:46:28.417Z,71.50
2019-04-04T12:48:57.084Z,76.90
2019-04-04T12:51:25.302Z,83.93
2019-04-04T12:53:53.518Z,78.83
2019-04-04T12:56:21.729Z,75.00
2019-04-04T12:58:50.185Z,77.50
2019-04-04T13:01:21.110Z,83.93
2019-04-04T13:03:48.327Z,75.80
2019-04-04T13:06:16.539Z,80.13
2019-04-04T13:08:44.740Z,74.97
2019-04-04T13:11:12.968Z,82.80
2019-04-04T13:13:41.171Z,74.73
2019-04-04T13:16:09.373Z,81.50
2019-04-04T13:18:37.589Z,77.40
2019-04-04T13:21:05.798Z,80.60
2019-04-04T13:23:34.018Z,78.67
2019-04-04T13:26:02.219Z,81.90
2019-04-04T13:28:30.440Z,76.33
2019-04-04T13:30:58.648Z,75.33
2019-04-04T13:33:26.883Z,83.70
2019-04-04T13:35:55.087Z,79.33
2019-04-04T13:38:24.761Z,77.77
2019-04-04T13:40:52.985Z,75.70
2019-04-04T13:43:22.594Z,79.40
2019-04-04T13:45:51.131Z,80.63
2019-04-04T13:48:19.326Z,67.87
2019-04-04T13:50:47.585Z,69.13
2019-04-04T13:53:15.790Z,78.40
2019-04-04T13:55:43.990Z,73.43
2019-04-04T13:58:12.443Z,82.53
2019-04-04T14:00:40.588Z,77.87
2019-04-04T14:03:09.285Z,77.60
2019-04-04T14:05:37.481Z,81.37
2019-04-04T14:08:05.717Z,75.20
2019-04-04T14:10:33.894Z,74.93
2019-04-04T14:13:02.097Z,86.70
2019-04-04T14:15:30.334Z,75.43
2019-04-04T14:17:58.525Z,77.73
2019-04-04T14:20:26.745Z,83.93
2019-04-04T14:22:54.950Z,79.50
2019-04-04T14:25:23.175Z,82.00
2019-04-04T14:27:51.380Z,82.10
2019-04-04T14:30:19.598Z,78.97
2019-04-04T14:32:47.799Z,67.40
2019-04-04T14:35:16.016Z,76.80
2019-04-04T14:37:44.222Z,78.73
2019-04-04T14:40:12.453Z,75.03
2019-04-04T14:42:40.650Z,64.73
2019-04-04T14:45:09.138Z,77.07
2019-04-04T14:47:37.337Z,81.33
2019-04-04T14:50:07.094Z,79.03
2019-04-04T14:52:35.298Z,76.07
2019-04-04T14:55:04.252Z,82.37
2019-04-04T14:57:32.460Z,74.73
2019-04-04T15:00:00.681Z,79.97
2019-04-04T15:02:28.883Z,70.60
2019-04-04T15:04:57.085Z,71.33
2019-04-04T15:07:25.306Z,83.57
2019-04-04T15:09:53.502Z,69.93
2019-04-04T15:12:22.730Z,71.20
2019-04-04T15:14:50.929Z,81.07
2019-04-04T15:17:19.139Z,83.73
2019-04-04T15:19:47.345Z,75.63
2019-04-04T15:22:15.629Z,73.87
2019-04-04T15:24:43.829Z,82.97
2019-04-04T15:27:12.046Z,79.57
2019-04-04T15:29:40.249Z,84.77
2019-04-04T15:32:08.542Z,77.93
2019-04-04T15:34:36.748Z,80.80
2019-04-04T15:37:04.954Z,91.63
2019-04-04T15:39:33.167Z,89.43
2019-04-04T15:42:01.385Z,88.87
2019-04-04T15:44:29.600Z,87.27
2019-04-04T15:46:57.808Z,86.83
2019-04-04T15:49:26.039Z,89.23
2019-04-04T15:51:54.245Z,82.23
2019-04-04T15:54:22.447Z,89.10
2019-04-04T15:56:50.661Z,93.77
2019-04-04T15:59:18.860Z,89.87
2019-04-04T16:01:47.074Z,89.87
2019-04-04T16:04:15.287Z,91.10
2019-04-04T16:06:43.503Z,86.83
2019-04-04T16:09:11.698Z,94.97
2019-04-04T16:11:49.450Z,92.13
2019-04-04T16:14:09.842Z,90.13
2019-04-04T16:16:38.057Z,90.40
2019-04-04T16:19:06.256Z,86.30
2019-04-04T16:21:34.733Z,103.33
2019-04-04T16:24:02.945Z,88.57
2019-04-04T16:26:31.166Z,87.40
2019-04-04T16:28:59.365Z,86.27
2019-04-04T16:31:27.580Z,83.73
2019-04-04T16:33:55.781Z,87.90
2019-04-04T16:36:24.004Z,87.90
2019-04-04T16:38:52.217Z,91.20
2019-04-04T16:41:20.412Z,85.20
2019-04-04T16:43:49.613Z,81.87
2019-04-04T16:46:17.907Z,86.87
2019-04-04T16:48:46.126Z,96.13
2019-04-04T16:51:14.327Z,89.00
2019-04-04T16:53:42.544Z,77.90
2019-04-04T16:56:10.751Z,86.17
2019-04-04T16:58:38.956Z,87.10
2019-04-04T17:01:07.173Z,90.17
2019-04-04T17:03:35.381Z,93.27
2019-04-04T17:06:03.600Z,92.07
2019-04-04T17:08:31.807Z,93.40
2019-04-04T17:11:00.033Z,96.77
2019-04-04T17:13:28.234Z,88.63
2019-04-04T17:15:56.440Z,81.83
2019-04-04T17:18:24.657Z,81.00
2019-04-04T17:20:52.867Z,94.23
2019-04-04T17:23:21.086Z,102.57
2019-04-04T17:25:49.294Z,89.00
2019-04-04T17:28:17.648Z,85.83
2019-04-04T17:30:46.195Z,93.83
2019-04-04T17:33:14.944Z,95.17
2019-04-04T17:35:43.186Z,84.53
2019-04-04T17:38:11.404Z,77.20
2019-04-04T17:40:40.118Z,77.20
2019-04-04T17:43:08.326Z,79.63
2019-04-04T17:45:36.936Z,85.43
2019-04-04T17:48:05.153Z,73.43
2019-04-04T17:50:33.390Z,86.53
2019-04-04T17:53:01.663Z,82.40
2019-04-04T17:55:29.905Z,83.30
2019-04-04T17:57:58.092Z,82.30
2019-04-04T18:00:27.517Z,76.80
2019-04-04T18:02:55.716Z,73.10
2019-04-04T18:05:23.937Z,83.33
2019-04-04T18:07:52.146Z,72.43
2019-04-04T18:10:21.716Z,79.57
2019-04-04T18:12:49.927Z,80.27
2019-04-04T18:15:18.137Z,79.17
2019-04-04T18:17:46.326Z,74.83
2019-04-04T18:20:15.805Z,76.40
2019-04-04T18:22:44.005Z,75.33
2019-04-04T18:25:12.191Z,73.73
2019-04-04T18:27:42.638Z,70.37
2019-04-04T18:30:13.078Z,64.40
2019-04-04T18:32:41.288Z,70.00
2019-04-04T18:35:09.553Z,74.87
2019-04-04T18:37:38.119Z,73.60
2019-04-04T18:40:07.262Z,75.17
2019-04-04T18:42:35.482Z,78.23
2019-04-04T18:45:05.565Z,71.63
2019-04-04T18:47:33.777Z,78.97
2019-04-04T18:50:02.379Z,70.33
2019-04-04T18:52:30.578Z,77.20
2019-04-04T18:54:58.790Z,71.50
2019-04-04T18:57:27.014Z,77.40
2019-04-04T18:59:55.213Z,84.43
2019-04-04T19:02:23.410Z,83.80
2019-04-04T19:04:51.624Z,81.10
2019-04-04T19:07:19.825Z,82.37
2019-04-04T19:09:48.042Z,81.70
2019-04-04T19:12:16.242Z,71.47
2019-04-04T19:14:44.452Z,83.87
2019-04-04T19:17:12.673Z,80.33
2019-04-04T19:19:42.011Z,79.80
2019-04-04T19:22:10.235Z,78.40
2019-04-04T19:24:38.429Z,89.20
2019-04-04T19:27:06.645Z,79.67
2019-04-04T19:29:34.849Z,82.30
2019-04-04T19:32:03.644Z,86.97
2019-04-04T19:34:31.849Z,81.93
2019-04-04T19:37:00.052Z,83.83
2019-04-04T19:39:28.266Z,75.17
2019-04-04T19:41:56.464Z,77.57
2019-04-04T19:44:24.686Z,81.60
2019-04-04T19:46:52.888Z,84.30
2019-04-04T19:49:21.178Z,74.67
2019-04-04T19:51:49.389Z,86.07
2019-04-04T19:54:19.395Z,79.63
2019-04-04T19:56:47.634Z,83.33
2019-04-04T19:59:15.834Z,82.03
2019-04-04T20:01:44.052Z,84.80
2019-04-04T20:04:13.885Z,79.43
2019-04-04T20:06:42.097Z,83.93
2019-04-04T20:09:10.306Z,82.07
2019-04-04T20:11:38.664Z,92.27
2019-04-04T20:14:07.147Z,81.53
2019-04-04T20:16:35.638Z,86.47
2019-04-04T20:19:03.982Z,91.83
2019-04-04T20:21:32.191Z,73.67
2019-04-04T20:24:00.398Z,83.43
2019-04-04T20:26:29.556Z,80.57
2019-04-04T20:28:58.041Z,82.30
2019-04-04T20:31:26.532Z,83.17
2019-04-04T20:34:01.534Z,81.70
2019-04-04T20:36:25.014Z,87.40
2019-04-04T20:38:53.436Z,81.50
2019-04-04T20:41:21.986Z,79.57
2019-04-04T20:43:50.451Z,80.73
2019-04-04T20:46:18.937Z,90.17
2019-04-04T20:48:47.143Z,81.70
2019-04-04T20:51:15.421Z,82.07
2019-04-04T20:53:43.808Z,85.00
2019-04-04T20:56:12.357Z,83.00
2019-04-04T20:58:42.188Z,80.97
2019-04-04T21:01:10.484Z,81.73
2019-04-04T21:03:38.811Z,83.80
2019-04-04T21:06:07.055Z,86.37
2019-04-04T21:08:35.281Z,86.83
2019-04-04T21:11:03.787Z,86.80
2019-04-04T21:13:32.130Z,91.50
2019-04-04T21:16:00.445Z,83.13
2019-04-04T21:18:28.765Z,87.07
2019-04-04T21:20:57.160Z,94.13
2019-04-04T21:23:25.640Z,91.47
2019-04-04T21:25:54.132Z,91.97
2019-04-04T21:28:22.597Z,79.97
2019-04-04T21:30:50.839Z,80.80
2019-04-04T21:33:19.048Z,83.70
2019-04-04T21:35:47.261Z,82.37
2019-04-04T21:38:15.472Z,81.73
2019-04-04T21:40:44.010Z,89.63
2019-04-04T21:43:12.208Z,96.53
2019-04-04T21:45:40.482Z,92.90
2019-04-04T21:48:08.775Z,108.23
2019-04-04T21:50:38.384Z,97.43
2019-04-04T21:53:07.631Z,93.77
2019-04-04T21:55:35.839Z,99.20
2019-04-04T21:58:04.051Z,80.57
2019-04-04T22:00:39.714Z,84.10
2019-04-04T22:03:07.924Z,89.13
2019-04-04T22:05:36.139Z,90.77
2019-04-04T22:08:04.464Z,91.97
2019-04-04T22:10:32.929Z,96.93
2019-04-04T22:13:01.144Z,94.47
2019-04-04T22:15:29.348Z,93.07
2019-04-04T22:17:58.124Z,98.80
2019-04-04T22:20:26.321Z,88.23
2019-04-04T22:22:54.839Z,89.03
2019-04-04T22:25:23.299Z,96.57
2019-04-04T22:27:51.799Z,107.17
2019-04-04T22:30:20.278Z,100.27
2019-04-04T22:32:48.970Z,94.50
2019-04-04T22:35:17.325Z,98.80
2019-04-04T22:37:45.710Z,93.13
2019-04-04T22:40:15.668Z,93.90
2019-04-04T22:42:44.214Z,89.40
2019-04-04T22:45:12.708Z,84.53
2019-04-04T22:47:41.174Z,97.20
2019-04-04T22:50:10.361Z,94.43
2019-04-04T22:52:38.562Z,92.43
2019-04-04T22:55:07.292Z,100.77
2019-04-04T22:57:36.273Z,108.00
2019-04-04T23:00:06.906Z,95.00
2019-04-04T23:02:35.202Z,97.60
2019-04-04T23:05:04.536Z,103.63
2019-04-04T23:07:32.760Z,95.83
2019-04-04T23:10:00.949Z,97.50
2019-04-04T23:12:29.160Z,93.80
2019-04-04T23:14:57.532Z,93.10
2019-04-04T23:17:26.043Z,91.50
2019-04-04T23:19:54.501Z,88.40
2019-04-04T23:22:22.983Z,94.20
2019-04-04T23:24:51.477Z,91.50
2019-04-04T23:27:19.687Z,90.90
2019-04-04T23:29:47.925Z,82.20
2019-04-04T23:32:16.399Z,83.30
2019-04-04T23:34:44.885Z,91.70
2019-04-04T23:37:13.366Z,95.60
2019-04-04T23:39:41.865Z,90.80
2019-04-04T23:42:10.331Z,95.37
2019-04-04T23:44:38.528Z,89.27
2019-04-04T23:47:06.813Z,90.77
2019-04-04T23:49:35.015Z,86.63
2019-04-04T23:52:03.508Z,97.30
2019-04-04T23:54:31.705Z,87.43
2019-04-04T23:56:59.917Z,99.50
2019-04-04T23:59:28.122Z,88.17
